sensor_id;sensor_type;location;lat;lon;timestamp;pressure;altitude;pressure_sealevel;temperature;humidity
8641;BME280;4358;42.100;25.222;2023-04-01T00:01:00;99237.53;;;10.59;100.00
8641;BME280;4358;42.100;25.222;2023-04-01T00:03:28;99236.00;;;10.57;100.00
8641;BME280;4358;42.100;25.222;2023-04-01T00:05:55;99249.94;;;10.48;100.00
8641;BME280;4358;42.100;25.222;2023-04-01T00:08:22;99243.06;;;10.45;100.00
8641;BME280;4358;42.100;25.222;2023-04-01T00:10:49;99233.78;;;10.40;100.00
8641;BME280;4358;42.100;25.222;2023-04-01T00:13:16;99228.69;;;10.37;100.00
8641;BME280;4358;42.100;25.222;2023-04-01T00:15:45;99214.59;;;10.25;100.00
8641;BME280;4358;42.100;25.222;2023-04-01T00:18:12;99226.03;;;10.26;100.00
8641;BME280;4358;42.100;25.222;2023-04-01T00:20:39;99233.75;;;10.29;100.00
8641;BME280;4358;42.100;25.222;2023-04-01T00:23:09;99225.47;;;10.09;100.00
8641;BME280;4358;42.100;25.222;2023-04-01T00:25:36;99217.34;;;10.00;100.00
8641;BME280;4358;42.100;25.222;2023-04-01T00:28:03;99228.69;;;10.02;100.00
8641;BME280;4358;42.100;25.222;2023-04-01T00:30:29;99228.84;;;10.11;100.00
8641;BME280;4358;42.100;25.222;2023-04-01T00:32:58;99243.38;;;10.18;100.00
8641;BME280;4358;42.100;25.222;2023-04-01T00:35:25;99243.78;;;10.12;100.00
8641;BME280;4358;42.100;25.222;2023-04-01T00:37:52;99256.66;;;10.30;100.00
8641;BME280;4358;42.100;25.222;2023-04-01T00:40:25;99255.00;;;10.40;100.00
8641;BME280;4358;42.100;25.222;2023-04-01T00:42:52;99254.28;;;10.49;100.00
8641;BME280;4358;42.100;25.222;2023-04-01T00:45:30;99252.63;;;10.59;100.00
8641;BME280;4358;42.100;25.222;2023-04-01T00:48:01;99242.44;;;10.42;100.00
8641;BME280;4358;42.100;25.222;2023-04-01T00:50:30;99239.81;;;10.53;100.00
8641;BME280;4358;42.100;25.222;2023-04-01T00:52:58;99244.91;;;10.56;100.00
8641;BME280;4358;42.100;25.222;2023-04-01T00:55:27;99247.78;;;10.64;100.00
8641;BME280;4358;42.100;25.222;2023-04-01T00:57:57;99245.88;;;10.66;100.00
8641;BME280;4358;42.100;25.222;2023-04-01T01:00:25;99244.91;;;10.56;100.00
8641;BME280;4358;42.100;25.222;2023-04-01T01:02:52;99248.50;;;10.55;100.00
8641;BME280;4358;42.100;25.222;2023-04-01T01:05:27;99243.22;;;10.55;100.00
8641;BME280;4358;42.100;25.222;2023-04-01T01:08:01;99248.03;;;10.61;100.00
8641;BME280;4358;42.100;25.222;2023-04-01T01:10:31;99248.03;;;10.61;100.00
8641;BME280;4358;42.100;25.222;2023-04-01T01:13:05;99245.97;;;10.53;100.00
8641;BME280;4358;42.100;25.222;2023-04-01T01:15:39;99248.50;;;10.55;100.00
8641;BME280;4358;42.100;25.222;2023-04-01T01:18:18;99244.91;;;10.56;100.00
8641;BME280;4358;42.100;25.222;2023-04-01T01:24:17;99234.38;;;10.43;100.00
8641;BME280;4358;42.100;25.222;2023-04-01T01:26:55;99241.00;;;10.38;100.00
8641;BME280;4358;42.100;25.222;2023-04-01T01:29:52;99235.47;;;10.41;100.00
8641;BME280;4358;42.100;25.222;2023-04-01T01:32:46;99237.63;;;10.36;100.00
8641;BME280;4358;42.100;25.222;2023-04-01T01:35:22;99249.34;;;9.86;100.00
8641;BME280;4358;42.100;25.222;2023-04-01T01:37:54;99238.91;;;9.95;100.00
8641;BME280;4358;42.100;25.222;2023-04-01T01:40:22;99241.09;;;10.01;100.00
8641;BME280;4358;42.100;25.222;2023-04-01T01:42:54;99245.84;;;10.09;100.00
8641;BME280;4358;42.100;25.222;2023-04-01T01:45:24;99257.97;;;10.00;100.00
8641;BME280;4358;42.100;25.222;2023-04-01T01:47:53;99256.13;;;9.90;100.00
8641;BME280;4358;42.100;25.222;2023-04-01T01:50:23;99245.91;;;9.96;100.00
8641;BME280;4358;42.100;25.222;2023-04-01T01:53:01;99254.69;;;9.97;100.00
8641;BME280;4358;42.100;25.222;2023-04-01T01:55:30;99245.91;;;9.96;100.00
8641;BME280;4358;42.100;25.222;2023-04-01T01:57:59;99251.66;;;9.90;100.00
8641;BME280;4358;42.100;25.222;2023-04-01T02:00:27;99246.94;;;9.83;100.00
8641;BME280;4358;42.100;25.222;2023-04-01T02:02:55;99235.19;;;9.74;100.00
8641;BME280;4358;42.100;25.222;2023-04-01T02:05:25;99228.44;;;9.70;100.00
8641;BME280;4358;42.100;25.222;2023-04-01T02:08:00;99227.50;;;9.71;100.00
8641;BME280;4358;42.100;25.222;2023-04-01T02:10:28;99222.94;;;9.73;100.00
8641;BME280;4358;42.100;25.222;2023-04-01T02:13:01;99221.63;;;9.78;100.00
8641;BME280;4358;42.100;25.222;2023-04-01T02:15:36;99216.03;;;9.70;100.00
8641;BME280;4358;42.100;25.222;2023-04-01T02:18:04;99230.16;;;9.71;100.00
8641;BME280;4358;42.100;25.222;2023-04-01T02:20:34;99229.91;;;9.74;100.00
8641;BME280;4358;42.100;25.222;2023-04-01T02:23:03;99233.56;;;9.84;100.00
8641;BME280;4358;42.100;25.222;2023-04-01T02:25:35;99223.94;;;9.83;100.00
8641;BME280;4358;42.100;25.222;2023-04-01T02:28:05;99228.34;;;9.71;100.00
8641;BME280;4358;42.100;25.222;2023-04-01T02:30:34;99213.44;;;9.58;100.00
8641;BME280;4358;42.100;25.222;2023-04-01T02:33:03;99206.75;;;9.65;100.00
8641;BME280;4358;42.100;25.222;2023-04-01T02:35:35;99206.53;;;9.68;100.00
8641;BME280;4358;42.100;25.222;2023-04-01T02:38:03;99205.09;;;9.75;100.00
8641;BME280;4358;42.100;25.222;2023-04-01T02:40:41;99206.56;;;9.79;100.00
8641;BME280;4358;42.100;25.222;2023-04-01T02:43:08;99208.03;;;9.83;100.00
8641;BME280;4358;42.100;25.222;2023-04-01T02:45:35;99219.09;;;9.77;100.00
8641;BME280;4358;42.100;25.222;2023-04-01T02:48:02;99222.69;;;9.76;100.00
8641;BME280;4358;42.100;25.222;2023-04-01T02:50:28;99215.25;;;9.81;100.00
8641;BME280;4358;42.100;25.222;2023-04-01T02:52:57;99206.25;;;9.84;100.00
8641;BME280;4358;42.100;25.222;2023-04-01T02:55:23;99202.75;;;9.83;100.00
8641;BME280;4358;42.100;25.222;2023-04-01T02:57:50;99204.75;;;9.79;100.00
8641;BME280;4358;42.100;25.222;2023-04-01T03:00:17;99205.09;;;9.75;100.00
8641;BME280;4358;42.100;25.222;2023-04-01T03:02:44;99197.25;;;9.73;100.00
8641;BME280;4358;42.100;25.222;2023-04-01T03:05:11;99207.34;;;9.57;100.00
8641;BME280;4358;42.100;25.222;2023-04-01T03:07:38;99214.50;;;9.68;100.00
8641;BME280;4358;42.100;25.222;2023-04-01T03:10:07;99204.25;;;9.74;100.00
8641;BME280;4358;42.100;25.222;2023-04-01T03:12:35;99208.50;;;9.77;100.00
8641;BME280;4358;42.100;25.222;2023-04-01T03:15:02;99203.91;;;9.79;100.00
8641;BME280;4358;42.100;25.222;2023-04-01T03:17:29;99202.09;;;9.79;100.00
8641;BME280;4358;42.100;25.222;2023-04-01T03:19:56;99193.00;;;9.84;100.00
8641;BME280;4358;42.100;25.222;2023-04-01T03:22:23;99197.19;;;9.86;100.00
8641;BME280;4358;42.100;25.222;2023-04-01T03:24:50;99187.34;;;9.88;100.00
8641;BME280;4358;42.100;25.222;2023-04-01T03:27:18;99169.63;;;9.89;100.00
8641;BME280;4358;42.100;25.222;2023-04-01T03:29:45;99172.78;;;9.94;100.00
8641;BME280;4358;42.100;25.222;2023-04-01T03:32:12;99174.13;;;9.99;100.00
8641;BME280;4358;42.100;25.222;2023-04-01T03:34:39;99167.38;;;10.06;100.00
8641;BME280;4358;42.100;25.222;2023-04-01T03:37:06;99158.81;;;10.03;100.00
8641;BME280;4358;42.100;25.222;2023-04-01T03:39:33;99174.47;;;10.06;100.00
8641;BME280;4358;42.100;25.222;2023-04-01T03:42:00;99193.59;;;9.87;100.00
8641;BME280;4358;42.100;25.222;2023-04-01T03:44:31;99194.94;;;9.69;100.00
8641;BME280;4358;42.100;25.222;2023-04-01T03:46:58;99182.34;;;9.49;100.00
8641;BME280;4358;42.100;25.222;2023-04-01T03:49:25;99182.34;;;9.49;100.00
8641;BME280;4358;42.100;25.222;2023-04-01T03:51:52;99185.69;;;9.40;100.00
8641;BME280;4358;42.100;25.222;2023-04-01T03:54:19;99183.28;;;9.37;100.00
8641;BME280;4358;42.100;25.222;2023-04-01T03:56:46;99178.59;;;9.40;100.00
8641;BME280;4358;42.100;25.222;2023-04-01T03:59:13;99178.47;;;9.42;100.00
8641;BME280;4358;42.100;25.222;2023-04-01T04:01:42;99187.25;;;9.42;100.00
8641;BME280;4358;42.100;25.222;2023-04-01T04:04:10;99170.41;;;9.43;100.00
8641;BME280;4358;42.100;25.222;2023-04-01T04:06:38;99179.50;;;9.52;100.00
8641;BME280;4358;42.100;25.222;2023-04-01T04:09:04;99157.09;;;9.56;100.00
8641;BME280;4358;42.100;25.222;2023-04-01T04:11:32;99160.47;;;9.58;100.00
8641;BME280;4358;42.100;25.222;2023-04-01T04:13:59;99174.25;;;9.63;100.00
8641;BME280;4358;42.100;25.222;2023-04-01T04:16:26;99164.31;;;9.54;100.00
8641;BME280;4358;42.100;25.222;2023-04-01T04:18:54;99171.75;;;9.49;100.00
8641;BME280;4358;42.100;25.222;2023-04-01T04:21:21;99169.59;;;9.54;100.00
8641;BME280;4358;42.100;25.222;2023-04-01T04:23:48;99161.44;;;9.57;100.00
8641;BME280;4358;42.100;25.222;2023-04-01T04:26:16;99147.97;;;9.60;100.00
8641;BME280;4358;42.100;25.222;2023-04-01T04:28:42;99156.00;;;9.58;100.00
8641;BME280;4358;42.100;25.222;2023-04-01T04:31:09;99150.13;;;9.55;100.00
8641;BME280;4358;42.100;25.222;2023-04-01T04:33:36;99142.63;;;9.49;100.00
8641;BME280;4358;42.100;25.222;2023-04-01T04:36:05;99149.41;;;9.64;100.00
8641;BME280;4358;42.100;25.222;2023-04-01T04:38:32;99158.00;;;9.67;100.00
8641;BME280;4358;42.100;25.222;2023-04-01T04:40:59;99158.25;;;9.75;100.00
8641;BME280;4358;42.100;25.222;2023-04-01T04:43:26;99163.44;;;9.77;100.00
8641;BME280;4358;42.100;25.222;2023-04-01T04:45:53;99161.72;;;9.65;100.00
8641;BME280;4358;42.100;25.222;2023-04-01T04:48:19;99166.56;;;9.71;100.00
8641;BME280;4358;42.100;25.222;2023-04-01T04:50:47;99170.75;;;9.73;100.00
8641;BME280;4358;42.100;25.222;2023-04-01T04:53:17;99162.50;;;9.78;100.00
8641;BME280;4358;42.100;25.222;2023-04-01T04:55:44;99170.69;;;9.86;100.00
8641;BME280;4358;42.100;25.222;2023-04-01T04:58:11;99159.84;;;9.89;100.00
8641;BME280;4358;42.100;25.222;2023-04-01T05:00:38;99149.41;;;9.99;100.00
8641;BME280;4358;42.100;25.222;2023-04-01T05:03:05;99166.31;;;10.09;100.00
8641;BME280;4358;42.100;25.222;2023-04-01T05:05:32;99166.91;;;10.12;100.00
8641;BME280;4358;42.100;25.222;2023-04-01T05:07:58;99169.63;;;10.24;100.00
8641;BME280;4358;42.100;25.222;2023-04-01T05:10:27;99168.91;;;10.33;100.00
8641;BME280;4358;42.100;25.222;2023-04-01T05:12:54;99162.16;;;10.40;100.00
8641;BME280;4358;42.100;25.222;2023-04-01T05:15:21;99159.88;;;10.46;100.00
8641;BME280;4358;42.100;25.222;2023-04-01T05:17:48;99169.19;;;10.52;100.00
8641;BME280;4358;42.100;25.222;2023-04-01T05:20:15;99183.63;;;10.48;100.00
8641;BME280;4358;42.100;25.222;2023-04-01T05:22:42;99159.25;;;10.32;100.00
8641;BME280;4358;42.100;25.222;2023-04-01T05:25:09;99161.88;;;10.20;100.00
8641;BME280;4358;42.100;25.222;2023-04-01T05:27:37;99150.31;;;10.22;100.00
8641;BME280;4358;42.100;25.222;2023-04-01T05:30:06;99139.84;;;10.31;100.00
8641;BME280;4358;42.100;25.222;2023-04-01T05:32:33;99133.34;;;10.46;100.00
8641;BME280;4358;42.100;25.222;2023-04-01T05:35:00;99119.00;;;10.60;100.00
8641;BME280;4358;42.100;25.222;2023-04-01T05:37:26;99126.78;;;10.84;100.00
8641;BME280;4358;42.100;25.222;2023-04-01T05:39:53;99119.91;;;11.03;100.00
8641;BME280;4358;42.100;25.222;2023-04-01T05:42:20;99125.84;;;11.28;100.00
8641;BME280;4358;42.100;25.222;2023-04-01T05:44:49;99123.81;;;11.52;100.00
8641;BME280;4358;42.100;25.222;2023-04-01T05:47:15;99122.06;;;11.62;100.00
8641;BME280;4358;42.100;25.222;2023-04-01T05:49:42;99119.34;;;11.84;100.00
8641;BME280;4358;42.100;25.222;2023-04-01T05:52:09;99129.41;;;12.02;100.00
8641;BME280;4358;42.100;25.222;2023-04-01T05:54:36;99120.38;;;12.14;100.00
8641;BME280;4358;42.100;25.222;2023-04-01T05:57:03;99129.31;;;12.34;100.00
8641;BME280;4358;42.100;25.222;2023-04-01T05:59:30;99125.53;;;12.36;100.00
8641;BME280;4358;42.100;25.222;2023-04-01T06:01:59;99129.06;;;12.46;100.00
8641;BME280;4358;42.100;25.222;2023-04-01T06:04:28;99132.91;;;12.53;100.00
8641;BME280;4358;42.100;25.222;2023-04-01T06:06:58;99132.31;;;12.50;100.00
8641;BME280;4358;42.100;25.222;2023-04-01T06:09:26;99130.19;;;12.44;100.00
8641;BME280;4358;42.100;25.222;2023-04-01T06:12:18;99129.34;;;12.43;100.00
8641;BME280;4358;42.100;25.222;2023-04-01T06:14:58;99133.09;;;12.41;100.00
8641;BME280;4358;42.100;25.222;2023-04-01T06:17:41;99119.56;;;12.44;100.00
8641;BME280;4358;42.100;25.222;2023-04-01T06:20:16;99110.69;;;12.34;100.00
8641;BME280;4358;42.100;25.222;2023-04-01T06:22:59;99112.91;;;12.28;100.00
8641;BME280;4358;42.100;25.222;2023-04-01T06:25:38;99097.66;;;12.10;100.00
8641;BME280;4358;42.100;25.222;2023-04-01T06:31:18;99073.03;;;12.08;100.00
8641;BME280;4358;42.100;25.222;2023-04-01T06:33:58;99075.69;;;12.08;100.00
8641;BME280;4358;42.100;25.222;2023-04-01T06:36:39;99053.16;;;12.12;100.00
8641;BME280;4358;42.100;25.222;2023-04-01T06:39:22;99056.72;;;12.22;100.00
8641;BME280;4358;42.100;25.222;2023-04-01T06:42:07;99048.31;;;12.26;100.00
8641;BME280;4358;42.100;25.222;2023-04-01T06:44:42;99027.44;;;12.22;100.00
8641;BME280;4358;42.100;25.222;2023-04-01T06:47:24;99054.63;;;12.25;100.00
8641;BME280;4358;42.100;25.222;2023-04-01T06:50:05;99063.97;;;12.50;100.00
8641;BME280;4358;42.100;25.222;2023-04-01T06:52:41;99066.81;;;12.68;100.00
8641;BME280;4358;42.100;25.222;2023-04-01T06:55:27;99080.56;;;12.73;100.00
8641;BME280;4358;42.100;25.222;2023-04-01T06:57:56;99074.97;;;12.66;100.00
8641;BME280;4358;42.100;25.222;2023-04-01T07:00:29;99072.44;;;12.74;100.00
8641;BME280;4358;42.100;25.222;2023-04-01T07:03:05;99057.63;;;12.82;100.00
8641;BME280;4358;42.100;25.222;2023-04-01T07:05:35;99054.09;;;12.71;100.00
8641;BME280;4358;42.100;25.222;2023-04-01T07:08:04;99052.28;;;12.82;100.00
8641;BME280;4358;42.100;25.222;2023-04-01T07:10:41;99055.09;;;12.90;100.00
8641;BME280;4358;42.100;25.222;2023-04-01T07:13:15;99048.59;;;12.63;100.00
8641;BME280;4358;42.100;25.222;2023-04-01T07:15:53;99045.25;;;12.71;100.00
8641;BME280;4358;42.100;25.222;2023-04-01T07:18:25;99036.88;;;12.95;100.00
8641;BME280;4358;42.100;25.222;2023-04-01T07:20:56;99038.69;;;13.04;100.00
8641;BME280;4358;42.100;25.222;2023-04-01T07:23:26;99050.06;;;12.87;100.00
8641;BME280;4358;42.100;25.222;2023-04-01T07:25:58;99031.69;;;12.84;100.00
8641;BME280;4358;42.100;25.222;2023-04-01T07:28:30;99024.28;;;13.06;100.00
8641;BME280;4358;42.100;25.222;2023-04-01T07:31:05;99022.22;;;13.39;100.00
8641;BME280;4358;42.100;25.222;2023-04-01T07:33:39;99007.47;;;13.44;100.00
8641;BME280;4358;42.100;25.222;2023-04-01T07:36:13;98988.16;;;13.13;100.00
8641;BME280;4358;42.100;25.222;2023-04-01T07:38:52;98997.78;;;13.24;100.00
8641;BME280;4358;42.100;25.222;2023-04-01T07:41:27;98997.22;;;13.49;100.00
8641;BME280;4358;42.100;25.222;2023-04-01T07:44:05;98989.47;;;13.66;100.00
8641;BME280;4358;42.100;25.222;2023-04-01T07:46:46;98981.25;;;13.96;100.00
8641;BME280;4358;42.100;25.222;2023-04-01T07:49:23;98966.59;;;14.00;100.00
8641;BME280;4358;42.100;25.222;2023-04-01T07:52:00;98966.69;;;13.81;100.00
8641;BME280;4358;42.100;25.222;2023-04-01T07:54:36;98972.03;;;13.81;100.00
8641;BME280;4358;42.100;25.222;2023-04-01T07:57:10;98974.31;;;14.03;100.00
8641;BME280;4358;42.100;25.222;2023-04-01T07:59:45;98973.75;;;14.36;100.00
8641;BME280;4358;42.100;25.222;2023-04-01T08:02:28;98971.50;;;14.41;100.00
8641;BME280;4358;42.100;25.222;2023-04-01T08:05:04;98964.38;;;14.60;100.00
8641;BME280;4358;42.100;25.222;2023-04-01T08:07:40;98942.47;;;14.74;100.00
8641;BME280;4358;42.100;25.222;2023-04-01T08:10:16;98946.94;;;15.09;100.00
8641;BME280;4358;42.100;25.222;2023-04-01T08:12:55;98938.41;;;15.05;100.00
8641;BME280;4358;42.100;25.222;2023-04-01T08:15:27;98939.50;;;15.12;100.00
8641;BME280;4358;42.100;25.222;2023-04-01T08:18:05;98943.91;;;15.21;100.00
8641;BME280;4358;42.100;25.222;2023-04-01T08:20:40;98936.75;;;15.30;100.00
8641;BME280;4358;42.100;25.222;2023-04-01T08:23:13;98936.81;;;15.56;100.00
8641;BME280;4358;42.100;25.222;2023-04-01T08:25:48;98944.63;;;15.75;100.00
8641;BME280;4358;42.100;25.222;2023-04-01T08:28:20;98950.94;;;16.00;100.00
8641;BME280;4358;42.100;25.222;2023-04-01T08:30:53;98939.41;;;16.07;100.00
8641;BME280;4358;42.100;25.222;2023-04-01T08:33:24;98935.88;;;16.33;100.00
8641;BME280;4358;42.100;25.222;2023-04-01T08:35:55;98924.53;;;16.55;100.00
8641;BME280;4358;42.100;25.222;2023-04-01T08:38:30;98907.50;;;16.64;95.55
8641;BME280;4358;42.100;25.222;2023-04-01T08:41:00;98906.00;;;16.70;96.31
8641;BME280;4358;42.100;25.222;2023-04-01T08:43:49;98898.31;;;16.91;94.25
8641;BME280;4358;42.100;25.222;2023-04-01T08:46:54;98885.91;;;16.82;93.62
8641;BME280;4358;42.100;25.222;2023-04-01T08:49:51;98889.63;;;16.89;93.95
8641;BME280;4358;42.100;25.222;2023-04-01T08:52:36;98891.94;;;17.08;93.95
8641;BME280;4358;42.100;25.222;2023-04-01T08:55:25;98897.78;;;17.36;92.94
8641;BME280;4358;42.100;25.222;2023-04-01T08:58:11;98891.41;;;17.53;91.71
8641;BME280;4358;42.100;25.222;2023-04-01T09:00:49;98878.56;;;17.88;91.21
8641;BME280;4358;42.100;25.222;2023-04-01T09:06:24;98860.47;;;18.43;85.63
8641;BME280;4358;42.100;25.222;2023-04-01T09:09:09;98852.47;;;18.66;84.49
8641;BME280;4358;42.100;25.222;2023-04-01T09:12:00;98843.19;;;18.69;83.90
8641;BME280;4358;42.100;25.222;2023-04-01T09:14:47;98840.16;;;18.72;85.09
8641;BME280;4358;42.100;25.222;2023-04-01T09:17:30;98832.19;;;19.01;83.51
8641;BME280;4358;42.100;25.222;2023-04-01T09:23:27;98816.06;;;19.16;83.52
8641;BME280;4358;42.100;25.222;2023-04-01T09:26:17;98814.78;;;19.26;83.50
8641;BME280;4358;42.100;25.222;2023-04-01T09:28:57;98806.25;;;19.08;84.77
8641;BME280;4358;42.100;25.222;2023-04-01T09:34:44;98777.34;;;19.25;83.59
8641;BME280;4358;42.100;25.222;2023-04-01T09:37:20;98780.41;;;19.36;83.61
8641;BME280;4358;42.100;25.222;2023-04-01T09:40:02;98772.78;;;19.40;84.05
8641;BME280;4358;42.100;25.222;2023-04-01T09:42:49;98750.06;;;19.13;87.13
8641;BME280;4358;42.100;25.222;2023-04-01T09:45:40;98744.22;;;19.10;87.65
8641;BME280;4358;42.100;25.222;2023-04-01T09:48:19;98735.94;;;19.11;88.37
8641;BME280;4358;42.100;25.222;2023-04-01T09:50:57;98736.16;;;19.24;89.47
8641;BME280;4358;42.100;25.222;2023-04-01T09:53:37;98720.13;;;19.45;88.45
8641;BME280;4358;42.100;25.222;2023-04-01T09:56:33;98715.53;;;19.61;87.53
8641;BME280;4358;42.100;25.222;2023-04-01T10:02:38;98710.44;;;19.36;89.22
8641;BME280;4358;42.100;25.222;2023-04-01T10:05:41;98706.75;;;19.52;89.25
8641;BME280;4358;42.100;25.222;2023-04-01T10:11:54;98698.81;;;19.65;87.61
8641;BME280;4358;42.100;25.222;2023-04-01T10:14:45;98694.38;;;19.58;87.86
8641;BME280;4358;42.100;25.222;2023-04-01T10:20:54;98675.97;;;19.76;84.51
8641;BME280;4358;42.100;25.222;2023-04-01T10:23:53;98667.81;;;19.91;83.75
8641;BME280;4358;42.100;25.222;2023-04-01T10:26:49;98656.91;;;20.41;81.09
8641;BME280;4358;42.100;25.222;2023-04-01T10:29:36;98653.78;;;21.00;78.13
8641;BME280;4358;42.100;25.222;2023-04-01T10:35:41;98647.53;;;21.94;70.08
8641;BME280;4358;42.100;25.222;2023-04-01T10:38:49;98637.16;;;22.05;65.54
8641;BME280;4358;42.100;25.222;2023-04-01T10:41:38;98629.28;;;22.23;64.64
8641;BME280;4358;42.100;25.222;2023-04-01T10:44:30;98625.09;;;22.53;62.66
8641;BME280;4358;42.100;25.222;2023-04-01T10:53:43;98597.66;;;23.27;56.62
8641;BME280;4358;42.100;25.222;2023-04-01T10:56:44;98595.44;;;23.55;56.23
8641;BME280;4358;42.100;25.222;2023-04-01T10:59:57;98587.13;;;23.88;54.04
8641;BME280;4358;42.100;25.222;2023-04-01T11:06:26;98562.63;;;24.51;51.34
8641;BME280;4358;42.100;25.222;2023-04-01T11:09:47;98546.50;;;24.56;50.88
8641;BME280;4358;42.100;25.222;2023-04-01T11:12:46;98531.66;;;24.40;51.21
8641;BME280;4358;42.100;25.222;2023-04-01T11:15:34;98523.75;;;24.57;50.56
8641;BME280;4358;42.100;25.222;2023-04-01T11:18:31;98514.34;;;24.60;50.43
8641;BME280;4358;42.100;25.222;2023-04-01T11:24:23;98509.59;;;24.37;52.07
8641;BME280;4358;42.100;25.222;2023-04-01T11:27:01;98497.75;;;24.31;54.08
8641;BME280;4358;42.100;25.222;2023-04-01T11:30:07;98485.03;;;24.32;52.90
8641;BME280;4358;42.100;25.222;2023-04-01T11:32:46;98481.69;;;24.30;51.58
8641;BME280;4358;42.100;25.222;2023-04-01T11:35:49;98471.03;;;24.10;53.38
8641;BME280;4358;42.100;25.222;2023-04-01T11:38:37;98461.75;;;24.24;53.43
8641;BME280;4358;42.100;25.222;2023-04-01T11:41:18;98454.53;;;24.36;54.42
8641;BME280;4358;42.100;25.222;2023-04-01T11:43:55;98448.34;;;24.29;55.27
8641;BME280;4358;42.100;25.222;2023-04-01T11:46:34;98441.22;;;24.10;56.21
8641;BME280;4358;42.100;25.222;2023-04-01T11:49:21;98440.19;;;24.11;56.20
8641;BME280;4358;42.100;25.222;2023-04-01T11:52:02;98431.78;;;24.19;56.78
8641;BME280;4358;42.100;25.222;2023-04-01T11:54:56;98438.22;;;24.00;55.71
8641;BME280;4358;42.100;25.222;2023-04-01T11:57:43;98419.19;;;24.06;56.03
8641;BME280;4358;42.100;25.222;2023-04-01T12:03:21;98406.63;;;24.30;54.51
8641;BME280;4358;42.100;25.222;2023-04-01T12:05:58;98410.97;;;24.49;53.35
8641;BME280;4358;42.100;25.222;2023-04-01T12:08:38;98398.34;;;24.43;53.38
8641;BME280;4358;42.100;25.222;2023-04-01T12:11:12;98392.59;;;24.52;54.38
8641;BME280;4358;42.100;25.222;2023-04-01T12:13:48;98389.88;;;24.52;54.33
8641;BME280;4358;42.100;25.222;2023-04-01T12:16:36;98377.56;;;24.19;54.50
8641;BME280;4358;42.100;25.222;2023-04-01T12:19:15;98373.38;;;24.23;55.33
8641;BME280;4358;42.100;25.222;2023-04-01T12:21:52;98359.91;;;24.46;55.79
8641;BME280;4358;42.100;25.222;2023-04-01T12:24:45;98355.81;;;24.56;56.13
8641;BME280;4358;42.100;25.222;2023-04-01T12:27:30;98348.84;;;24.48;56.08
8641;BME280;4358;42.100;25.222;2023-04-01T12:36:20;98356.03;;;24.24;56.82
8641;BME280;4358;42.100;25.222;2023-04-01T12:39:06;98351.50;;;24.00;55.70
8641;BME280;4358;42.100;25.222;2023-04-01T12:41:44;98359.44;;;23.58;61.68
8641;BME280;4358;42.100;25.222;2023-04-01T12:44:26;98355.09;;;23.01;65.96
8641;BME280;4358;42.100;25.222;2023-04-01T12:47:23;98352.53;;;22.44;68.24
8641;BME280;4358;42.100;25.222;2023-04-01T12:53:02;98334.44;;;21.80;74.33
8641;BME280;4358;42.100;25.222;2023-04-01T12:55:37;98335.09;;;21.62;76.21
8641;BME280;4358;42.100;25.222;2023-04-01T12:58:41;98331.00;;;21.40;80.31
8641;BME280;4358;42.100;25.222;2023-04-01T13:01:30;98333.69;;;21.13;80.97
8641;BME280;4358;42.100;25.222;2023-04-01T13:04:22;98328.28;;;21.20;81.82
8641;BME280;4358;42.100;25.222;2023-04-01T13:07:10;98339.09;;;21.27;80.08
8641;BME280;4358;42.100;25.222;2023-04-01T13:09:45;98336.38;;;21.13;79.44
8641;BME280;4358;42.100;25.222;2023-04-01T13:12:40;98329.97;;;21.28;78.78
8641;BME280;4358;42.100;25.222;2023-04-01T13:15:21;98334.75;;;21.39;76.91
8641;BME280;4358;42.100;25.222;2023-04-01T13:17:53;98338.47;;;21.31;79.17
8641;BME280;4358;42.100;25.222;2023-04-01T13:20:33;98333.91;;;21.32;77.39
8641;BME280;4358;42.100;25.222;2023-04-01T13:23:10;98319.97;;;21.48;75.14
8641;BME280;4358;42.100;25.222;2023-04-01T13:25:46;98320.59;;;21.50;74.27
8641;BME280;4358;42.100;25.222;2023-04-01T13:28:21;98329.09;;;21.67;73.48
8641;BME280;4358;42.100;25.222;2023-04-01T13:30:59;98327.44;;;21.59;75.27
8641;BME280;4358;42.100;25.222;2023-04-01T13:33:34;98336.56;;;21.58;75.26
8641;BME280;4358;42.100;25.222;2023-04-01T13:36:14;98339.31;;;21.38;75.19
8641;BME280;4358;42.100;25.222;2023-04-01T13:39:01;98335.13;;;21.36;76.34
8641;BME280;4358;42.100;25.222;2023-04-01T13:41:43;98328.09;;;21.08;76.09
8641;BME280;4358;42.100;25.222;2023-04-01T13:44:17;98323.91;;;20.86;78.08
8641;BME280;4358;42.100;25.222;2023-04-01T13:47:10;98316.66;;;20.80;77.84
8641;BME280;4358;42.100;25.222;2023-04-01T13:50:03;98328.03;;;20.69;78.26
8641;BME280;4358;42.100;25.222;2023-04-01T13:55:55;98342.88;;;20.32;79.39
8641;BME280;4358;42.100;25.222;2023-04-01T13:58:47;98353.50;;;19.99;82.36
8641;BME280;4358;42.100;25.222;2023-04-01T14:01:18;98369.66;;;19.65;85.90
8641;BME280;4358;42.100;25.222;2023-04-01T14:04:09;98423.56;;;19.50;90.94
8641;BME280;4358;42.100;25.222;2023-04-01T14:06:49;98441.03;;;19.39;92.05
8641;BME280;4358;42.100;25.222;2023-04-01T14:09:45;98472.25;;;18.77;82.64
8641;BME280;4358;42.100;25.222;2023-04-01T14:12:28;98475.53;;;18.28;79.62
8641;BME280;4358;42.100;25.222;2023-04-01T14:15:10;98483.03;;;18.03;81.26
8641;BME280;4358;42.100;25.222;2023-04-01T14:17:58;98517.81;;;17.82;80.83
8641;BME280;4358;42.100;25.222;2023-04-01T14:20:35;98522.97;;;17.69;81.20
8641;BME280;4358;42.100;25.222;2023-04-01T14:23:33;98497.44;;;17.50;82.41
8641;BME280;4358;42.100;25.222;2023-04-01T14:26:11;98501.03;;;17.43;84.29
8641;BME280;4358;42.100;25.222;2023-04-01T14:28:51;98504.66;;;17.27;86.13
8641;BME280;4358;42.100;25.222;2023-04-01T14:31:30;98515.19;;;17.06;91.07
8641;BME280;4358;42.100;25.222;2023-04-01T14:34:12;98545.19;;;16.70;97.23
8641;BME280;4358;42.100;25.222;2023-04-01T14:36:56;98539.94;;;16.38;100.00
8641;BME280;4358;42.100;25.222;2023-04-01T14:39:38;98537.66;;;16.02;100.00
8641;BME280;4358;42.100;25.222;2023-04-01T14:42:38;98530.50;;;15.46;100.00
8641;BME280;4358;42.100;25.222;2023-04-01T14:45:25;98520.09;;;15.11;100.00
8641;BME280;4358;42.100;25.222;2023-04-01T14:47:59;98530.56;;;14.88;100.00
8641;BME280;4358;42.100;25.222;2023-04-01T14:50:41;98537.03;;;14.77;100.00
8641;BME280;4358;42.100;25.222;2023-04-01T14:53:16;98530.22;;;14.75;100.00